Time;durP1;ratioP1;P1;durP2;ratioP2;P2;SDS_P1;SDS_P2;PMS_P1;PMS_P2;Temp;Humidity;BMP_temperature;BMP_pressure;BME280_temperature;BME280_humidity;BME280_pressure;Samples;Min_cycle;Max_cycle;Signal;HPM_P1;HPM_P2
2021/12/26 00:00:34;;;;;;;31.93;16.03;;;4.90;98.00;;;;;;5024343;28;20949;-72
2021/12/26 00:03:00;;;;;;;39.90;15.70;;;5.00;97.90;;;;;;5041277;28;20838;-72
2021/12/26 00:05:27;;;;;;;33.70;15.03;;;4.90;97.80;;;;;;5043736;28;20909;-72
2021/12/26 00:07:53;;;;;;;38.90;16.50;;;4.90;97.70;;;;;;5018844;28;20430;-72
2021/12/26 00:10:21;;;;;;;34.63;15.77;;;4.90;97.60;;;;;;5041486;28;20510;-72
2021/12/26 00:12:48;;;;;;;29.57;13.40;;;4.80;97.70;;;;;;5032828;28;20432;-72
2021/12/26 00:15:14;;;;;;;32.73;14.67;;;4.90;97.80;;;;;;5044582;28;20770;-72
2021/12/26 00:17:40;;;;;;;37.53;16.30;;;5.00;97.80;;;;;;5045089;28;20416;-72
2021/12/26 00:20:10;;;;;;;35.20;16.07;;;4.80;97.80;;;;;;5034353;28;20434;-72
2021/12/26 00:22:36;;;;;;;33.23;14.87;;;4.80;97.80;;;;;;5035910;28;20248;-73
2021/12/26 00:25:04;;;;;;;36.63;15.40;;;4.80;97.70;;;;;;5033718;28;20423;-72
2021/12/26 00:27:30;;;;;;;33.67;15.00;;;4.80;97.50;;;;;;5040881;28;20431;-72
2021/12/26 00:29:55;;;;;;;33.17;13.97;;;4.80;97.50;;;;;;5047525;28;20846;-73
2021/12/26 00:32:21;;;;;;;33.30;14.97;;;4.80;97.50;;;;;;5031800;28;20283;-72
2021/12/26 00:34:50;;;;;;;31.60;14.27;;;4.80;97.50;;;;;;5047580;28;20189;-73
2021/12/26 00:37:17;;;;;;;30.70;13.17;;;4.70;97.50;;;;;;5040412;28;20573;-72
2021/12/26 00:39:43;;;;;;;30.67;14.00;;;4.80;97.60;;;;;;5043693;28;20454;-72
2021/12/26 00:42:09;;;;;;;31.33;12.97;;;4.80;97.60;;;;;;5044094;28;20489;-72
2021/12/26 00:44:39;;;;;;;30.53;14.80;;;4.80;97.50;;;;;;5038164;28;20980;-73
2021/12/26 00:47:07;;;;;;;29.37;12.83;;;4.80;97.50;;;;;;5030035;28;20431;-73
2021/12/26 00:49:33;;;;;;;28.53;13.63;;;4.70;97.50;;;;;;5047511;28;20917;-73
2021/12/26 00:51:58;;;;;;;33.60;14.83;;;4.80;97.70;;;;;;5036151;28;20484;-73
2021/12/26 00:54:24;;;;;;;30.43;12.63;;;4.80;97.80;;;;;;5039143;28;21155;-72
2021/12/26 00:56:50;;;;;;;36.30;15.07;;;4.90;97.80;;;;;;5026179;28;20659;-72
2021/12/26 00:59:16;;;;;;;25.23;12.23;;;4.90;97.70;;;;;;5041319;28;20199;-72
2021/12/26 01:01:42;;;;;;;33.33;14.80;;;4.90;97.60;;;;;;5041627;28;20216;-71
2021/12/26 01:04:08;;;;;;;32.97;13.40;;;5.00;97.60;;;;;;5040075;28;20896;-73
2021/12/26 01:06:34;;;;;;;24.60;11.30;;;4.90;97.50;;;;;;5037585;28;20193;-72
2021/12/26 01:09:00;;;;;;;26.30;12.30;;;4.90;97.50;;;;;;5037940;28;20897;-73
2021/12/26 01:11:38;;;;;;;22.93;11.70;;;4.90;97.50;;;;;;5011777;28;20449;-73
2021/12/26 01:14:08;;;;;;;22.37;12.70;;;4.90;97.50;;;;;;5033522;28;20430;-73
2021/12/26 01:16:34;;;;;;;19.80;10.57;;;4.90;97.50;;;;;;5032146;28;20472;-72
2021/12/26 01:19:07;;;;;;;22.60;10.90;;;4.90;97.40;;;;;;5038083;28;20434;-73
2021/12/26 01:21:33;;;;;;;27.50;11.03;;;4.80;97.50;;;;;;5026388;28;20454;-73
2021/12/26 01:24:02;;;;;;;23.97;10.07;;;4.80;97.50;;;;;;5032265;28;20428;-73
2021/12/26 01:26:29;;;;;;;31.10;11.60;;;4.80;97.50;;;;;;5038568;28;20418;-73
2021/12/26 01:28:55;;;;;;;22.37;11.03;;;4.80;97.60;;;;;;5029050;28;20935;-73
2021/12/26 01:31:21;;;;;;;25.17;11.43;;;4.90;97.60;;;;;;5014229;28;20453;-73
2021/12/26 01:33:49;;;;;;;23.00;9.80;;;4.80;97.40;;;;;;5030196;28;20432;-74
2021/12/26 01:36:15;;;;;;;20.63;10.73;;;4.70;97.50;;;;;;5038681;28;20544;-72
2021/12/26 01:38:41;;;;;;;25.57;10.90;;;4.60;97.70;;;;;;5026704;28;20911;-74
2021/12/26 01:41:10;;;;;;;25.50;10.60;;;4.60;97.80;;;;;;5042445;28;20497;-74
2021/12/26 01:43:39;;;;;;;25.30;11.40;;;4.60;97.80;;;;;;5038246;28;20275;-72
2021/12/26 01:46:06;;;;;;;28.77;11.57;;;4.70;97.90;;;;;;5033369;28;20476;-71
2021/12/26 01:48:32;;;;;;;24.70;11.37;;;4.70;97.90;;;;;;5039119;28;20421;-73
2021/12/26 01:50:58;;;;;;;25.23;11.10;;;4.60;97.80;;;;;;5032857;28;20457;-74
2021/12/26 01:53:35;;;;;;;26.20;11.00;;;4.60;97.80;;;;;;5014026;28;20437;-72
2021/12/26 01:56:01;;;;;;;21.63;10.13;;;4.60;97.80;;;;;;5035179;28;20466;-73
2021/12/26 01:58:29;;;;;;;22.53;10.70;;;4.60;97.80;;;;;;5033686;28;20421;-72
2021/12/26 02:01:04;;;;;;;21.00;10.27;;;4.60;97.90;;;;;;5034702;28;20449;-72
2021/12/26 02:03:30;;;;;;;19.80;10.37;;;4.60;98.00;;;;;;5038080;28;20416;-72
2021/12/26 02:05:55;;;;;;;25.10;11.10;;;4.60;98.00;;;;;;5047924;28;20726;-73
2021/12/26 02:08:21;;;;;;;23.80;11.80;;;4.60;97.90;;;;;;5042884;28;20523;-73
2021/12/26 02:10:47;;;;;;;27.20;10.83;;;4.60;97.90;;;;;;5041539;28;20683;-73
2021/12/26 02:13:14;;;;;;;19.00;9.70;;;4.60;97.80;;;;;;5020421;28;20569;-73
2021/12/26 02:15:40;;;;;;;21.93;10.43;;;4.60;97.90;;;;;;5042941;28;20474;-74
2021/12/26 02:18:07;;;;;;;21.07;9.50;;;4.70;98.10;;;;;;5043436;28;20557;-72
2021/12/26 02:21:08;;;;;;;16.57;8.73;;;4.70;98.10;;;;;;5041929;28;20431;-72
2021/12/26 02:24:01;;;;;;;19.07;8.50;;;4.80;97.90;;;;;;5024993;28;20417;-73
2021/12/26 02:29:03;;;;;;;22.50;10.53;;;4.70;97.50;;;;;;5026699;28;20512;-72
2021/12/26 02:31:29;;;;;;;25.57;10.33;;;4.70;97.50;;;;;;5035958;28;20910;-72
2021/12/26 02:33:55;;;;;;;21.97;9.57;;;4.60;97.50;;;;;;5034511;28;20231;-72
2021/12/26 02:36:21;;;;;;;23.13;9.80;;;4.60;97.60;;;;;;5044243;28;20319;-72
2021/12/26 02:38:47;;;;;;;27.10;10.57;;;4.60;97.70;;;;;;5032163;28;20197;-71
2021/12/26 02:41:13;;;;;;;20.97;10.30;;;4.60;97.70;;;;;;5042333;28;20205;-72
2021/12/26 02:43:39;;;;;;;24.00;10.70;;;4.60;97.50;;;;;;5041014;28;20482;-71
2021/12/26 02:46:06;;;;;;;24.53;10.90;;;4.50;97.50;;;;;;5016403;28;20999;-72
2021/12/26 02:48:36;;;;;;;23.70;10.83;;;4.50;97.60;;;;;;5043395;28;20652;-73
2021/12/26 02:51:03;;;;;;;29.53;11.70;;;4.50;97.60;;;;;;5015193;28;20921;-72
2021/12/26 02:53:29;;;;;;;25.80;11.63;;;4.60;97.70;;;;;;5032110;28;20436;-73
2021/12/26 02:55:57;;;;;;;26.23;12.73;;;4.60;97.80;;;;;;5029538;28;20471;-72
2021/12/26 02:58:23;;;;;;;23.37;10.60;;;4.50;97.80;;;;;;5032821;28;20423;-71
2021/12/26 03:00:55;;;;;;;23.00;10.13;;;4.50;97.80;;;;;;5027980;28;20443;-71
2021/12/26 03:03:21;;;;;;;22.23;10.70;;;4.60;97.90;;;;;;5045617;28;20945;-71
2021/12/26 03:05:58;;;;;;;23.93;12.20;;;4.70;97.80;;;;;;5048170;28;20427;-71
2021/12/26 03:08:24;;;;;;;27.77;12.90;;;4.60;97.70;;;;;;5047788;28;20180;-72
2021/12/26 03:10:51;;;;;;;24.17;11.50;;;4.50;97.60;;;;;;5044991;28;20982;-72
2021/12/26 03:13:17;;;;;;;28.10;11.50;;;4.50;97.60;;;;;;5045017;28;20238;-71
2021/12/26 03:15:43;;;;;;;25.10;11.03;;;4.60;97.80;;;;;;5039019;28;20461;-72
2021/12/26 03:18:09;;;;;;;22.60;11.43;;;4.60;97.80;;;;;;5044793;28;20184;-71
2021/12/26 03:20:39;;;;;;;30.43;12.13;;;4.60;97.50;;;;;;5033985;28;20987;-72
2021/12/26 03:23:08;;;;;;;23.60;11.53;;;4.50;97.50;;;;;;5042155;28;20203;-72
2021/12/26 03:25:34;;;;;;;25.70;11.37;;;4.50;97.50;;;;;;5047841;28;20523;-71
2021/12/26 03:28:02;;;;;;;27.47;11.90;;;4.60;97.60;;;;;;5039438;28;20423;-71
2021/12/26 03:30:29;;;;;;;29.63;12.37;;;4.60;97.60;;;;;;5023323;28;20447;-71
2021/12/26 03:32:56;;;;;;;29.23;13.73;;;4.50;97.60;;;;;;5003727;28;20430;-72
2021/12/26 03:35:24;;;;;;;28.00;12.10;;;4.60;97.60;;;;;;5037854;28;20475;-71
2021/12/26 03:37:50;;;;;;;22.90;11.17;;;4.60;97.70;;;;;;5050698;28;20446;-71
2021/12/26 03:40:15;;;;;;;28.20;11.30;;;4.60;97.80;;;;;;5034550;28;20459;-72
2021/12/26 03:42:41;;;;;;;26.57;12.33;;;4.60;97.80;;;;;;5047629;28;20288;-71
2021/12/26 03:45:08;;;;;;;33.70;14.57;;;4.70;97.90;;;;;;5031580;28;20285;-72
2021/12/26 03:47:34;;;;;;;27.27;11.43;;;4.70;97.90;;;;;;5045430;28;20518;-72
2021/12/26 03:50:01;;;;;;;31.20;13.80;;;4.70;97.90;;;;;;5040535;28;20752;-71
2021/12/26 03:52:27;;;;;;;23.47;10.77;;;4.80;97.80;;;;;;5036827;28;21043;-72
2021/12/26 03:54:54;;;;;;;27.13;12.07;;;4.70;97.70;;;;;;5044362;28;20427;-71
2021/12/26 03:57:20;;;;;;;26.83;12.40;;;4.70;97.60;;;;;;5055828;28;20416;-71
2021/12/26 03:59:46;;;;;;;30.27;13.57;;;4.70;97.60;;;;;;5035034;28;20730;-72
2021/12/26 04:02:12;;;;;;;23.80;12.47;;;4.60;97.60;;;;;;5023914;28;20450;-71
2021/12/26 04:04:39;;;;;;;30.03;11.60;;;4.60;97.70;;;;;;5028845;28;20421;-72
2021/12/26 04:07:05;;;;;;;27.50;11.87;;;4.60;97.80;;;;;;5038490;28;20998;-71
2021/12/26 04:09:31;;;;;;;28.30;12.00;;;4.70;98.00;;;;;;5021911;28;20543;-72
2021/12/26 04:11:57;;;;;;;25.80;11.70;;;4.70;97.90;;;;;;5036317;28;20569;-72
2021/12/26 04:14:22;;;;;;;27.00;12.20;;;4.70;97.90;;;;;;5035452;28;20204;-72
2021/12/26 04:16:48;;;;;;;26.53;12.60;;;4.80;98.00;;;;;;5048323;28;20223;-72
2021/12/26 04:19:14;;;;;;;28.07;12.77;;;4.80;98.00;;;;;;5032813;28;20589;-73
2021/12/26 04:21:40;;;;;;;27.97;12.43;;;4.90;97.90;;;;;;5042589;28;20215;-72
2021/12/26 04:24:06;;;;;;;29.27;11.57;;;4.90;97.80;;;;;;5040399;28;20423;-72
2021/12/26 04:26:33;;;;;;;25.03;11.63;;;4.90;97.80;;;;;;5044318;28;20264;-72
2021/12/26 04:28:59;;;;;;;31.10;13.13;;;5.00;97.70;;;;;;5036420;28;20450;-72
2021/12/26 04:31:24;;;;;;;31.13;12.37;;;5.00;97.60;;;;;;5022719;28;20942;-72
2021/12/26 04:33:50;;;;;;;28.40;12.30;;;5.00;97.50;;;;;;5029620;28;20546;-72
2021/12/26 04:36:17;;;;;;;33.80;12.73;;;4.90;97.40;;;;;;5038886;28;20239;-72
2021/12/26 04:38:44;;;;;;;33.93;13.50;;;4.90;97.50;;;;;;5045551;28;20922;-72
2021/12/26 04:41:11;;;;;;;30.53;12.87;;;5.00;97.40;;;;;;5036362;28;20447;-72
2021/12/26 04:43:38;;;;;;;25.00;12.53;;;4.90;97.40;;;;;;5035772;28;20428;-72
2021/12/26 04:46:05;;;;;;;31.30;13.30;;;4.90;97.40;;;;;;5035128;28;20459;-71
2021/12/26 04:48:32;;;;;;;30.10;12.87;;;4.90;97.50;;;;;;5039531;28;20474;-72
2021/12/26 04:50:59;;;;;;;32.33;14.60;;;4.90;97.50;;;;;;5042003;28;20952;-72
2021/12/26 04:53:25;;;;;;;34.07;13.87;;;4.90;97.50;;;;;;5036456;28;20436;-72
2021/12/26 04:55:50;;;;;;;28.90;13.27;;;4.90;97.60;;;;;;5048795;28;20913;-72
2021/12/26 04:58:16;;;;;;;28.00;12.60;;;4.90;97.60;;;;;;5035696;28;20440;-73
2021/12/26 05:00:42;;;;;;;32.00;13.57;;;5.00;97.60;;;;;;5045580;28;20204;-72
2021/12/26 05:03:08;;;;;;;29.87;13.03;;;5.00;97.50;;;;;;5045265;28;20683;-72
2021/12/26 05:05:35;;;;;;;26.90;12.20;;;5.00;97.30;;;;;;5046280;28;20188;-72
2021/12/26 05:08:02;;;;;;;28.50;12.50;;;5.00;97.30;;;;;;5042428;28;20910;-72
2021/12/26 05:10:29;;;;;;;26.23;11.63;;;5.00;97.40;;;;;;5044691;28;20805;-72
2021/12/26 05:12:59;;;;;;;27.40;13.07;;;5.00;97.50;;;;;;5039485;28;20506;-72
2021/12/26 05:15:25;;;;;;;33.53;13.80;;;5.00;97.30;;;;;;5037657;28;20581;-72
2021/12/26 05:17:53;;;;;;;30.40;12.97;;;5.10;97.30;;;;;;5041451;28;20426;-73
2021/12/26 05:20:20;;;;;;;26.43;12.80;;;5.10;97.30;;;;;;5040307;28;20435;-72
2021/12/26 05:22:47;;;;;;;30.70;12.40;;;5.10;97.20;;;;;;5047150;28;20420;-72
2021/12/26 05:25:13;;;;;;;25.27;10.80;;;5.10;97.10;;;;;;5031819;28;20439;-73
2021/12/26 05:27:39;;;;;;;29.13;12.50;;;5.10;97.10;;;;;;5042919;28;20424;-72
2021/12/26 05:30:07;;;;;;;35.20;13.83;;;5.10;97.10;;;;;;5047874;28;20932;-71
2021/12/26 05:32:33;;;;;;;34.10;13.43;;;5.10;97.00;;;;;;5031332;28;20213;-72
2021/12/26 05:34:58;;;;;;;26.50;12.10;;;5.10;97.00;;;;;;5045232;28;20431;-72
2021/12/26 05:37:24;;;;;;;38.67;14.63;;;5.10;97.00;;;;;;5044485;28;20208;-72
2021/12/26 05:39:50;;;;;;;29.33;13.40;;;5.10;97.00;;;;;;5038528;28;20549;-71
2021/12/26 05:42:16;;;;;;;28.13;12.60;;;5.10;96.90;;;;;;5035982;28;20204;-72
2021/12/26 05:44:48;;;;;;;24.93;11.50;;;5.00;96.80;;;;;;5037131;28;20196;-72
2021/12/26 05:47:15;;;;;;;26.83;11.80;;;5.00;96.90;;;;;;5037437;28;20562;-72
2021/12/26 05:49:41;;;;;;;22.70;11.93;;;5.00;97.00;;;;;;5043274;28;20426;-71
2021/12/26 05:52:07;;;;;;;33.43;13.67;;;5.00;97.10;;;;;;5037697;28;20458;-72
2021/12/26 05:54:34;;;;;;;33.33;13.70;;;5.00;97.20;;;;;;5036175;28;20419;-73
2021/12/26 05:57:01;;;;;;;34.67;15.40;;;5.10;97.30;;;;;;5042423;28;20467;-72
2021/12/26 05:59:27;;;;;;;32.10;14.00;;;5.10;97.30;;;;;;5019445;28;20432;-72
2021/12/26 06:01:52;;;;;;;33.67;13.47;;;5.20;97.40;;;;;;5039527;28;20427;-70
2021/12/26 06:04:19;;;;;;;38.50;15.53;;;5.20;97.40;;;;;;5030734;28;20184;-72
2021/12/26 06:06:44;;;;;;;30.60;14.23;;;5.20;97.30;;;;;;5041761;28;20185;-73
2021/12/26 06:09:11;;;;;;;33.13;14.90;;;5.20;97.20;;;;;;5046447;28;20481;-72
2021/12/26 06:11:37;;;;;;;31.67;15.37;;;5.20;97.30;;;;;;5031673;28;20649;-72
2021/12/26 06:14:03;;;;;;;31.97;15.00;;;5.30;97.30;;;;;;5044228;28;20489;-72
2021/12/26 06:16:29;;;;;;;29.50;14.13;;;5.20;97.30;;;;;;5044708;28;21157;-72
2021/12/26 06:18:55;;;;;;;36.00;15.03;;;5.20;97.30;;;;;;5041370;28;20192;-73
2021/12/26 06:21:21;;;;;;;30.63;13.40;;;5.20;97.30;;;;;;5040495;28;20468;-73
2021/12/26 06:23:50;;;;;;;38.37;14.50;;;5.20;97.40;;;;;;5036632;28;20263;-72
2021/12/26 06:26:22;;;;;;;31.30;13.37;;;5.20;97.40;;;;;;5023132;28;20788;-73
2021/12/26 06:28:48;;;;;;;31.63;13.57;;;5.30;97.40;;;;;;5018002;28;20575;-71
2021/12/26 06:31:14;;;;;;;36.20;13.13;;;5.30;97.40;;;;;;5044446;28;20929;-73
2021/12/26 06:33:40;;;;;;;33.87;13.10;;;5.40;97.40;;;;;;5030164;28;20281;-72
2021/12/26 06:36:07;;;;;;;32.30;12.43;;;5.40;97.10;;;;;;5044110;28;20671;-72
2021/12/26 06:38:34;;;;;;;29.30;12.77;;;5.50;96.90;;;;;;5048485;28;20495;-72
2021/12/26 06:41:04;;;;;;;32.97;13.77;;;5.50;96.80;;;;;;5027394;28;20762;-71
2021/12/26 06:43:30;;;;;;;30.93;14.27;;;5.50;96.70;;;;;;5041587;28;20431;-71
2021/12/26 06:45:56;;;;;;;34.53;15.27;;;5.50;96.70;;;;;;5036670;28;20430;-71
2021/12/26 06:48:23;;;;;;;27.70;14.37;;;5.50;96.70;;;;;;5047990;28;20423;-71
2021/12/26 06:50:50;;;;;;;39.30;15.07;;;5.50;96.70;;;;;;5037616;28;20453;-71
2021/12/26 06:53:16;;;;;;;28.40;11.83;;;5.50;96.70;;;;;;5041123;28;20436;-72
2021/12/26 06:55:43;;;;;;;34.73;13.50;;;5.50;96.60;;;;;;5051977;28;20498;-71
2021/12/26 06:58:09;;;;;;;32.00;14.00;;;5.60;96.70;;;;;;5047044;28;20426;-71
2021/12/26 07:00:35;;;;;;;22.57;11.60;;;5.60;96.50;;;;;;5046637;28;20414;-73
2021/12/26 07:03:02;;;;;;;24.90;11.43;;;5.60;96.40;;;;;;5042238;28;20423;-71
2021/12/26 07:05:28;;;;;;;25.90;12.03;;;5.60;96.20;;;;;;5031817;28;20517;-71
2021/12/26 07:07:55;;;;;;;32.60;13.90;;;5.60;96.10;;;;;;5041009;28;20977;-72
2021/12/26 07:10:20;;;;;;;24.50;11.97;;;5.60;96.10;;;;;;5027818;28;20439;-72
2021/12/26 07:12:46;;;;;;;31.47;14.50;;;5.60;96.10;;;;;;5040693;28;20203;-72
2021/12/26 07:15:12;;;;;;;35.40;14.90;;;5.60;96.00;;;;;;5046078;28;20204;-71
2021/12/26 07:17:40;;;;;;;34.07;16.07;;;5.60;96.20;;;;;;5045574;28;20795;-72
2021/12/26 07:20:08;;;;;;;35.27;13.80;;;5.50;96.30;;;;;;5017880;28;20530;-71
2021/12/26 07:22:34;;;;;;;41.97;14.53;;;5.50;96.40;;;;;;5036796;28;20498;-72
2021/12/26 07:25:00;;;;;;;38.17;16.67;;;5.50;96.50;;;;;;5051151;28;20940;-71
2021/12/26 07:27:25;;;;;;;36.13;14.90;;;5.50;96.60;;;;;;5037993;28;20981;-71
2021/12/26 07:29:51;;;;;;;29.70;13.30;;;5.50;96.70;;;;;;5049008;28;20181;-72
2021/12/26 07:32:17;;;;;;;34.47;14.53;;;5.50;96.70;;;;;;5041217;28;20436;-71
2021/12/26 07:34:43;;;;;;;29.60;14.50;;;5.50;96.70;;;;;;5047515;28;20224;-72
2021/12/26 07:37:09;;;;;;;41.13;15.70;;;5.60;96.60;;;;;;5044338;28;20470;-71
2021/12/26 07:39:36;;;;;;;28.23;14.50;;;5.60;96.60;;;;;;5046727;28;20184;-71
2021/12/26 07:42:03;;;;;;;39.03;14.03;;;5.60;96.60;;;;;;5035283;28;20439;-72
2021/12/26 07:44:28;;;;;;;31.97;13.93;;;5.60;96.60;;;;;;5022315;28;20446;-71
2021/12/26 07:46:54;;;;;;;31.83;14.37;;;5.60;96.70;;;;;;5037076;28;20430;-72
2021/12/26 07:49:22;;;;;;;34.60;15.60;;;5.60;96.60;;;;;;5045374;28;20197;-72
2021/12/26 07:51:49;;;;;;;37.93;14.60;;;5.70;96.50;;;;;;5039929;28;20970;-72
2021/12/26 07:54:16;;;;;;;34.90;13.80;;;5.70;96.40;;;;;;5040547;28;20462;-73
2021/12/26 07:56:42;;;;;;;35.77;15.40;;;5.70;96.40;;;;;;5028270;28;20578;-72
2021/12/26 07:59:08;;;;;;;35.53;15.07;;;5.70;96.20;;;;;;5018847;28;20512;-72
2021/12/26 08:01:34;;;;;;;29.67;13.80;;;5.80;96.20;;;;;;5035795;28;20685;-71
2021/12/26 08:04:02;;;;;;;31.83;14.40;;;5.80;96.20;;;;;;5035134;28;20451;-71
2021/12/26 08:06:29;;;;;;;35.87;14.80;;;5.80;96.10;;;;;;5031048;28;20916;-70
2021/12/26 08:08:55;;;;;;;35.03;15.73;;;5.80;96.20;;;;;;5035537;28;20472;-70
2021/12/26 08:11:21;;;;;;;35.57;14.87;;;5.80;96.20;;;;;;5028200;28;20444;-72
2021/12/26 08:13:47;;;;;;;36.13;15.63;;;5.80;96.30;;;;;;5043823;28;20449;-73
2021/12/26 08:16:14;;;;;;;32.47;14.23;;;5.80;96.10;;;;;;5027049;28;21108;-71
2021/12/26 08:18:41;;;;;;;35.73;15.40;;;5.70;95.90;;;;;;5038536;28;20191;-71
2021/12/26 08:21:07;;;;;;;39.73;14.73;;;5.70;96.10;;;;;;5040975;28;20453;-72
2021/12/26 08:23:32;;;;;;;34.17;14.67;;;5.70;96.20;;;;;;5040252;28;20422;-73
2021/12/26 08:25:59;;;;;;;38.60;15.07;;;5.60;96.10;;;;;;5029469;28;20210;-70
2021/12/26 08:28:25;;;;;;;36.87;16.00;;;5.50;96.40;;;;;;5035951;28;20730;-71
2021/12/26 08:30:51;;;;;;;36.63;15.10;;;5.50;96.60;;;;;;5040919;28;20550;-73
2021/12/26 08:33:17;;;;;;;43.97;16.93;;;5.40;96.80;;;;;;5034137;28;20526;-72
2021/12/26 08:35:44;;;;;;;46.83;17.80;;;5.30;97.20;;;;;;5035563;28;20837;-71
2021/12/26 08:38:13;;;;;;;41.77;17.33;;;5.20;97.50;;;;;;5030917;28;20427;-70
2021/12/26 08:40:38;;;;;;;46.50;18.43;;;5.20;97.90;;;;;;5031665;28;20429;-73
2021/12/26 08:43:04;;;;;;;39.57;16.63;;;5.20;98.10;;;;;;5042296;28;20651;-72
2021/12/26 08:45:30;;;;;;;47.27;17.57;;;5.30;98.20;;;;;;5029259;28;20205;-70
2021/12/26 08:47:56;;;;;;;43.47;16.47;;;5.30;98.20;;;;;;5049317;28;20173;-72
2021/12/26 08:50:25;;;;;;;51.37;19.70;;;5.40;98.30;;;;;;5020976;28;20254;-73
2021/12/26 08:52:52;;;;;;;43.83;17.73;;;5.50;98.30;;;;;;5022466;28;20442;-72
2021/12/26 08:55:19;;;;;;;41.43;16.63;;;5.50;98.10;;;;;;5044733;28;20465;-71
2021/12/26 08:57:46;;;;;;;38.40;17.37;;;5.60;98.10;;;;;;5044704;28;20458;-71
2021/12/26 09:00:13;;;;;;;52.30;19.00;;;5.70;97.80;;;;;;5037197;28;20460;-73
2021/12/26 09:02:39;;;;;;;43.70;17.93;;;5.80;97.70;;;;;;5043561;28;20438;-71
2021/12/26 09:05:06;;;;;;;40.97;16.73;;;5.80;97.30;;;;;;5043545;28;20492;-71
2021/12/26 09:07:32;;;;;;;44.87;17.93;;;5.90;97.10;;;;;;5043352;28;20833;-71
2021/12/26 09:09:58;;;;;;;42.30;17.43;;;5.80;96.70;;;;;;5032289;28;20423;-71
2021/12/26 09:12:24;;;;;;;36.20;17.83;;;5.90;96.70;;;;;;5037764;28;20565;-71
2021/12/26 09:14:51;;;;;;;39.50;16.43;;;6.00;96.80;;;;;;5039250;28;20430;-72
2021/12/26 09:17:16;;;;;;;44.83;19.40;;;6.00;96.80;;;;;;5032654;28;20481;-71
2021/12/26 09:19:42;;;;;;;37.63;16.87;;;6.10;96.90;;;;;;5038986;28;20428;-72
2021/12/26 09:22:10;;;;;;;38.53;17.00;;;6.20;96.70;;;;;;5046749;28;20207;-73
2021/12/26 09:24:36;;;;;;;42.53;17.63;;;6.20;96.50;;;;;;5032518;28;20194;-75
2021/12/26 09:27:03;;;;;;;36.20;16.57;;;6.30;96.40;;;;;;5043457;28;21135;-72
2021/12/26 09:29:29;;;;;;;40.37;16.30;;;6.30;96.40;;;;;;5035396;28;20451;-72
2021/12/26 09:31:56;;;;;;;40.63;16.10;;;6.40;96.30;;;;;;5041789;28;20911;-74
2021/12/26 09:34:23;;;;;;;39.23;16.90;;;6.50;96.00;;;;;;5041532;28;20180;-74
2021/12/26 09:36:49;;;;;;;42.97;16.90;;;6.60;95.70;;;;;;5038392;28;20620;-73
2021/12/26 09:39:16;;;;;;;32.90;15.63;;;6.60;95.40;;;;;;5035024;28;20419;-73
2021/12/26 09:41:41;;;;;;;37.43;15.80;;;6.70;95.10;;;;;;5035413;28;20441;-73
2021/12/26 09:44:08;;;;;;;42.27;17.30;;;6.70;95.10;;;;;;5030597;28;20796;-74
2021/12/26 09:46:35;;;;;;;40.10;16.17;;;6.80;95.10;;;;;;5034699;28;20212;-73
2021/12/26 09:49:02;;;;;;;36.97;16.03;;;6.90;94.90;;;;;;5041201;28;20423;-72
2021/12/26 09:51:28;;;;;;;35.30;16.10;;;6.90;94.40;;;;;;5031263;28;21047;-72
2021/12/26 09:53:54;;;;;;;44.27;17.67;;;6.90;94.30;;;;;;5038886;28;20509;-74
2021/12/26 09:56:20;;;;;;;40.23;17.57;;;6.80;94.30;;;;;;5046182;28;20493;-73
2021/12/26 09:58:57;;;;;;;33.03;15.80;;;6.80;94.50;;;;;;5035148;28;20448;-74
2021/12/26 10:01:38;;;;;;;44.80;17.03;;;6.80;94.60;;;;;;5023512;28;20444;-73
2021/12/26 10:04:25;;;;;;;39.67;16.13;;;6.70;94.60;;;;;;5011737;28;20427;-74
2021/12/26 10:07:11;;;;;;;39.53;15.97;;;6.70;94.80;;;;;;5044215;28;20454;-73
2021/12/26 10:09:42;;;;;;;34.63;15.23;;;6.70;95.10;;;;;;5014619;28;20446;-74
2021/12/26 10:12:12;;;;;;;40.63;17.90;;;6.70;95.10;;;;;;5028638;28;20446;-73
2021/12/26 10:14:38;;;;;;;37.50;18.53;;;6.70;95.00;;;;;;5044492;28;20455;-74
2021/12/26 10:17:06;;;;;;;45.30;17.23;;;6.80;95.10;;;;;;5053301;28;20983;-74
2021/12/26 10:19:34;;;;;;;44.97;17.53;;;6.90;95.20;;;;;;5033534;28;20470;-74
2021/12/26 10:22:02;;;;;;;33.73;15.80;;;7.00;95.30;;;;;;5043630;28;20979;-74
2021/12/26 10:24:31;;;;;;;42.50;18.40;;;7.20;95.20;;;;;;5024601;28;20421;-73
2021/12/26 10:27:04;;;;;;;34.57;15.23;;;7.20;94.90;;;;;;5034690;28;20427;-74
2021/12/26 10:29:44;;;;;;;37.67;15.80;;;7.20;94.60;;;;;;5020039;28;20423;-74
2021/12/26 10:32:18;;;;;;;35.30;16.60;;;7.20;94.60;;;;;;5016944;28;20452;-74
2021/12/26 10:34:53;;;;;;;32.63;15.30;;;7.40;94.60;;;;;;5040714;28;20456;-72
2021/12/26 10:37:28;;;;;;;32.40;15.03;;;7.50;94.50;;;;;;5037696;28;20474;-74
2021/12/26 10:40:10;;;;;;;35.10;16.20;;;7.60;94.40;;;;;;5018431;28;20422;-74
2021/12/26 10:42:39;;;;;;;32.93;15.40;;;7.70;94.20;;;;;;5040051;28;20452;-74
2021/12/26 10:45:10;;;;;;;32.80;14.47;;;7.70;93.90;;;;;;5032092;28;20446;-74
2021/12/26 10:47:38;;;;;;;29.93;14.47;;;7.60;93.40;;;;;;5043202;28;20418;-74
2021/12/26 10:50:06;;;;;;;37.27;16.67;;;7.50;93.50;;;;;;5039215;28;20419;-74
2021/12/26 10:52:37;;;;;;;35.77;15.73;;;7.40;93.90;;;;;;5034376;28;20443;-74
2021/12/26 10:55:06;;;;;;;31.93;14.87;;;7.40;94.00;;;;;;5041881;28;20490;-74
2021/12/26 10:57:38;;;;;;;31.10;15.40;;;7.40;94.20;;;;;;5027280;28;20419;-73
2021/12/26 11:00:06;;;;;;;36.37;17.20;;;7.40;94.50;;;;;;5034349;28;20799;-74
2021/12/26 11:02:34;;;;;;;37.47;14.90;;;7.50;94.50;;;;;;5042912;28;20482;-74
2021/12/26 11:05:21;;;;;;;35.97;14.93;;;7.50;94.40;;;;;;5036579;28;20427;-74
2021/12/26 11:07:59;;;;;;;34.00;15.57;;;7.60;94.20;;;;;;5032084;28;20421;-73
2021/12/26 11:10:42;;;;;;;37.47;16.50;;;7.70;94.20;;;;;;5038584;28;20427;-74
2021/12/26 11:13:23;;;;;;;31.80;13.70;;;7.90;94.30;;;;;;5031015;28;20448;-73
2021/12/26 11:15:50;;;;;;;32.80;14.40;;;8.00;94.00;;;;;;5035750;28;20462;-74
2021/12/26 11:18:18;;;;;;;28.73;14.83;;;8.10;93.60;;;;;;5043871;28;20423;-74
2021/12/26 11:20:53;;;;;;;33.07;15.03;;;8.20;93.40;;;;;;5030470;28;20448;-74
2021/12/26 11:23:28;;;;;;;28.90;13.70;;;8.10;93.20;;;;;;5025573;28;20442;-74
2021/12/26 11:26:00;;;;;;;31.43;14.60;;;8.10;93.10;;;;;;5014614;28;20466;-74
2021/12/26 11:28:30;;;;;;;25.90;13.33;;;8.20;93.30;;;;;;5018033;28;20478;-73
2021/12/26 11:31:06;;;;;;;29.03;14.60;;;8.20;93.00;;;;;;5040954;28;20541;-74
2021/12/26 11:33:33;;;;;;;26.10;12.53;;;8.20;92.80;;;;;;5031751;28;20783;-74
2021/12/26 11:35:59;;;;;;;25.27;13.90;;;8.20;92.80;;;;;;5039610;28;20459;-74
2021/12/26 11:38:27;;;;;;;26.00;12.30;;;8.40;92.90;;;;;;5044235;28;20424;-74
2021/12/26 11:40:57;;;;;;;27.00;13.07;;;8.50;92.70;;;;;;5020383;28;20477;-74
2021/12/26 11:43:55;;;;;;;27.37;12.00;;;8.60;92.70;;;;;;5039490;28;20439;-74
2021/12/26 11:47:08;;;;;;;24.97;11.67;;;8.60;92.40;;;;;;5017262;28;21059;-74
2021/12/26 11:50:10;;;;;;;24.67;11.80;;;8.70;92.50;;;;;;5038934;28;20940;-73
2021/12/26 11:52:54;;;;;;;24.97;12.07;;;8.80;92.30;;;;;;5038421;28;20443;-75
2021/12/26 11:55:44;;;;;;;30.40;13.70;;;9.00;92.20;;;;;;5041627;28;20460;-75
2021/12/26 11:58:16;;;;;;;22.70;11.73;;;9.00;92.00;;;;;;5042973;28;20428;-73
2021/12/26 12:00:49;;;;;;;24.70;10.93;;;8.90;91.80;;;;;;5047460;28;20909;-74
2021/12/26 12:03:25;;;;;;;19.57;11.33;;;8.90;91.80;;;;;;5034281;28;20432;-74
2021/12/26 12:05:52;;;;;;;21.30;11.53;;;8.90;92.10;;;;;;5032892;28;20423;-75
2021/12/26 12:08:23;;;;;;;17.67;11.23;;;8.90;92.00;;;;;;5033699;28;20440;-74
2021/12/26 12:10:52;;;;;;;21.10;10.80;;;8.90;92.00;;;;;;5023159;28;21057;-75
2021/12/26 12:13:27;;;;;;;17.20;9.03;;;8.80;92.20;;;;;;5026348;28;20429;-74
2021/12/26 12:16:04;;;;;;;17.03;9.87;;;8.80;92.40;;;;;;5030658;28;20474;-72
2021/12/26 12:18:31;;;;;;;18.13;9.77;;;8.90;92.30;;;;;;5040646;28;20422;-77
2021/12/26 12:21:09;;;;;;;21.10;10.67;;;9.00;92.50;;;;;;5017792;28;20447;-77
2021/12/26 12:23:37;;;;;;;20.13;10.73;;;9.10;92.30;;;;;;5045371;28;20422;-77
2021/12/26 12:26:03;;;;;;;18.30;10.23;;;9.20;92.30;;;;;;5029780;28;20448;-76
2021/12/26 12:28:32;;;;;;;21.43;11.60;;;9.40;92.20;;;;;;5035724;28;20466;-78
2021/12/26 12:31:07;;;;;;;17.73;9.00;;;9.50;91.80;;;;;;5033518;28;20200;-77
2021/12/26 12:33:34;;;;;;;19.67;10.90;;;9.70;91.20;;;;;;5035324;28;20450;-77
2021/12/26 12:36:25;;;;;;;24.80;10.87;;;9.80;91.00;;;;;;5036453;28;20469;-77
2021/12/26 12:38:51;;;;;;;18.20;9.73;;;9.90;90.50;;;;;;5030630;28;20420;-77
2021/12/26 12:41:28;;;;;;;16.47;10.47;;;9.90;90.10;;;;;;5030986;28;20442;-77
2021/12/26 12:43:57;;;;;;;18.80;10.00;;;10.10;89.70;;;;;;5031696;28;20454;-76
2021/12/26 12:46:23;;;;;;;16.63;10.13;;;10.10;89.20;;;;;;5017595;28;21004;-78